sensor_id;sensor_type;location;lat;lon;timestamp;P1;durP1;ratioP1;P2;durP2;ratioP2
12788;SDS011;6458;42.710;23.192;2022-10-16T09:43:49;4.53;;;4.13;;
12788;SDS011;6458;42.710;23.192;2022-10-16T09:46:30;5.13;;;4.60;;
12788;SDS011;6458;42.710;23.192;2022-10-16T09:49:19;4.60;;;4.20;;
12788;SDS011;6458;42.710;23.192;2022-10-16T09:52:04;3.97;;;3.73;;
12788;SDS011;6458;42.710;23.192;2022-10-16T09:54:51;4.50;;;4.10;;
12788;SDS011;6458;42.710;23.192;2022-10-16T09:57:31;4.30;;;3.97;;
12788;SDS011;6458;42.710;23.192;2022-10-16T10:41:18;3.83;;;3.53;;
12788;SDS011;6458;42.710;23.192;2022-10-16T10:44:03;4.40;;;3.83;;
12788;SDS011;6458;42.710;23.192;2022-10-16T10:46:48;3.80;;;3.37;;
12788;SDS011;6458;42.710;23.192;2022-10-16T10:49:34;3.60;;;3.30;;
12788;SDS011;6458;42.710;23.192;2022-10-16T10:52:30;4.13;;;3.43;;
12788;SDS011;6458;42.710;23.192;2022-10-16T10:55:17;3.63;;;3.33;;
12788;SDS011;6458;42.710;23.192;2022-10-16T15:36:18;2.87;;;2.73;;
12788;SDS011;6458;42.710;23.192;2022-10-16T15:38:53;3.40;;;2.80;;
12788;SDS011;6458;42.710;23.192;2022-10-16T15:41:25;3.13;;;2.93;;
12788;SDS011;6458;42.710;23.192;2022-10-16T15:43:55;3.17;;;2.90;;
12788;SDS011;6458;42.710;23.192;2022-10-16T15:46:28;3.60;;;3.30;;
12788;SDS011;6458;42.710;23.192;2022-10-16T15:49:00;3.20;;;2.90;;
12788;SDS011;6458;42.710;23.192;2022-10-16T15:51:29;3.30;;;3.10;;
12788;SDS011;6458;42.710;23.192;2022-10-16T15:54:04;3.67;;;3.47;;
12788;SDS011;6458;42.710;23.192;2022-10-16T15:56:36;3.93;;;3.53;;
12788;SDS011;6458;42.710;23.192;2022-10-16T15:59:03;4.27;;;3.90;;
12788;SDS011;6458;42.710;23.192;2022-10-16T16:01:31;4.47;;;4.07;;
12788;SDS011;6458;42.710;23.192;2022-10-16T16:03:58;4.63;;;4.20;;
12788;SDS011;6458;42.710;23.192;2022-10-16T16:06:24;4.43;;;4.03;;
12788;SDS011;6458;42.710;23.192;2022-10-16T16:08:53;4.00;;;3.70;;
12788;SDS011;6458;42.710;23.192;2022-10-16T16:11:19;6.07;;;3.83;;
12788;SDS011;6458;42.710;23.192;2022-10-16T16:13:48;4.23;;;3.83;;
12788;SDS011;6458;42.710;23.192;2022-10-16T16:16:15;3.93;;;3.63;;
12788;SDS011;6458;42.710;23.192;2022-10-16T16:18:42;3.40;;;3.20;;
12788;SDS011;6458;42.710;23.192;2022-10-16T16:21:10;3.93;;;3.63;;
12788;SDS011;6458;42.710;23.192;2022-10-16T16:23:37;4.20;;;3.90;;
12788;SDS011;6458;42.710;23.192;2022-10-16T16:26:06;4.57;;;4.17;;
12788;SDS011;6458;42.710;23.192;2022-10-16T16:28:33;5.60;;;4.50;;
12788;SDS011;6458;42.710;23.192;2022-10-16T16:31:00;4.13;;;3.83;;
12788;SDS011;6458;42.710;23.192;2022-10-16T16:33:26;4.50;;;4.07;;
12788;SDS011;6458;42.710;23.192;2022-10-16T16:35:55;4.97;;;4.50;;
12788;SDS011;6458;42.710;23.192;2022-10-16T16:38:22;5.10;;;4.60;;
12788;SDS011;6458;42.710;23.192;2022-10-16T16:40:49;7.07;;;4.03;;
12788;SDS011;6458;42.710;23.192;2022-10-16T16:43:18;5.17;;;4.77;;
12788;SDS011;6458;42.710;23.192;2022-10-16T16:45:45;6.77;;;4.90;;
12788;SDS011;6458;42.710;23.192;2022-10-16T16:48:11;6.63;;;4.77;;
12788;SDS011;6458;42.710;23.192;2022-10-16T16:50:38;5.20;;;4.70;;
12788;SDS011;6458;42.710;23.192;2022-10-16T16:53:13;5.10;;;4.57;;
12788;SDS011;6458;42.710;23.192;2022-10-16T16:55:40;5.20;;;4.40;;
12788;SDS011;6458;42.710;23.192;2022-10-16T16:58:06;6.07;;;4.37;;
12788;SDS011;6458;42.710;23.192;2022-10-16T17:00:34;4.83;;;4.43;;
12788;SDS011;6458;42.710;23.192;2022-10-16T17:03:01;6.50;;;5.00;;
12788;SDS011;6458;42.710;23.192;2022-10-16T17:05:28;5.73;;;5.10;;
12788;SDS011;6458;42.710;23.192;2022-10-16T17:07:54;5.93;;;5.40;;
12788;SDS011;6458;42.710;23.192;2022-10-16T17:10:21;6.10;;;5.30;;
12788;SDS011;6458;42.710;23.192;2022-10-16T17:12:47;7.20;;;5.80;;
12788;SDS011;6458;42.710;23.192;2022-10-16T17:15:14;7.27;;;5.67;;
12788;SDS011;6458;42.710;23.192;2022-10-16T17:17:42;7.17;;;5.40;;
12788;SDS011;6458;42.710;23.192;2022-10-16T17:20:09;9.43;;;5.70;;
12788;SDS011;6458;42.710;23.192;2022-10-16T17:22:36;8.03;;;5.87;;
12788;SDS011;6458;42.710;23.192;2022-10-16T17:25:02;7.43;;;5.83;;
12788;SDS011;6458;42.710;23.192;2022-10-16T17:27:30;6.00;;;5.50;;
12788;SDS011;6458;42.710;23.192;2022-10-16T17:29:58;6.07;;;5.47;;
12788;SDS011;6458;42.710;23.192;2022-10-16T17:32:25;6.10;;;5.50;;
12788;SDS011;6458;42.710;23.192;2022-10-16T17:34:53;6.37;;;5.77;;
12788;SDS011;6458;42.710;23.192;2022-10-16T17:37:19;6.27;;;5.63;;
12788;SDS011;6458;42.710;23.192;2022-10-16T17:39:47;6.37;;;5.57;;
12788;SDS011;6458;42.710;23.192;2022-10-16T17:42:15;6.40;;;5.80;;
12788;SDS011;6458;42.710;23.192;2022-10-16T17:44:42;5.60;;;5.10;;
12788;SDS011;6458;42.710;23.192;2022-10-16T17:47:08;5.30;;;4.83;;
12788;SDS011;6458;42.710;23.192;2022-10-16T17:49:35;5.70;;;5.10;;
12788;SDS011;6458;42.710;23.192;2022-10-16T17:52:03;6.77;;;5.10;;
12788;SDS011;6458;42.710;23.192;2022-10-16T17:54:30;5.13;;;4.63;;
12788;SDS011;6458;42.710;23.192;2022-10-16T17:56:56;5.27;;;4.73;;
12788;SDS011;6458;42.710;23.192;2022-10-16T17:59:23;5.73;;;5.10;;
12788;SDS011;6458;42.710;23.192;2022-10-16T18:01:50;7.20;;;5.10;;
12788;SDS011;6458;42.710;23.192;2022-10-16T18:04:17;7.73;;;5.13;;
12788;SDS011;6458;42.710;23.192;2022-10-16T18:06:43;5.90;;;5.37;;
12788;SDS011;6458;42.710;23.192;2022-10-16T18:09:13;6.03;;;5.53;;
12788;SDS011;6458;42.710;23.192;2022-10-16T18:11:42;7.03;;;5.10;;
12788;SDS011;6458;42.710;23.192;2022-10-16T18:14:10;14.23;;;11.30;;
12788;SDS011;6458;42.710;23.192;2022-10-16T18:16:38;13.50;;;11.27;;
12788;SDS011;6458;42.710;23.192;2022-10-16T18:19:04;17.37;;;11.03;;
12788;SDS011;6458;42.710;23.192;2022-10-16T18:21:31;10.97;;;8.67;;
12788;SDS011;6458;42.710;23.192;2022-10-16T18:23:58;13.03;;;10.87;;
12788;SDS011;6458;42.710;23.192;2022-10-16T18:26:27;15.87;;;10.93;;
12788;SDS011;6458;42.710;23.192;2022-10-16T18:28:54;17.27;;;11.63;;
12788;SDS011;6458;42.710;23.192;2022-10-16T18:31:21;20.40;;;13.27;;
12788;SDS011;6458;42.710;23.192;2022-10-16T18:33:50;21.13;;;13.60;;
12788;SDS011;6458;42.710;23.192;2022-10-16T18:36:17;20.90;;;13.57;;
12788;SDS011;6458;42.710;23.192;2022-10-16T18:38:44;21.07;;;12.33;;
12788;SDS011;6458;42.710;23.192;2022-10-16T18:41:11;26.70;;;15.10;;
12788;SDS011;6458;42.710;23.192;2022-10-16T18:43:39;21.97;;;15.90;;
12788;SDS011;6458;42.710;23.192;2022-10-16T18:46:06;27.70;;;15.87;;
12788;SDS011;6458;42.710;23.192;2022-10-16T18:48:33;23.93;;;14.67;;
12788;SDS011;6458;42.710;23.192;2022-10-16T18:51:05;21.93;;;13.23;;
12788;SDS011;6458;42.710;23.192;2022-10-16T18:53:32;24.30;;;15.13;;
12788;SDS011;6458;42.710;23.192;2022-10-16T18:55:58;33.97;;;15.90;;
12788;SDS011;6458;42.710;23.192;2022-10-16T18:58:25;24.33;;;14.60;;
12788;SDS011;6458;42.710;23.192;2022-10-16T19:00:53;30.90;;;16.97;;
12788;SDS011;6458;42.710;23.192;2022-10-16T19:03:20;34.50;;;18.03;;
12788;SDS011;6458;42.710;23.192;2022-10-16T19:05:46;25.03;;;14.40;;
12788;SDS011;6458;42.710;23.192;2022-10-16T19:08:15;20.83;;;11.93;;
12788;SDS011;6458;42.710;23.192;2022-10-16T19:10:41;16.97;;;11.37;;
12788;SDS011;6458;42.710;23.192;2022-10-16T19:13:08;21.57;;;12.47;;
12788;SDS011;6458;42.710;23.192;2022-10-16T19:15:39;20.03;;;11.40;;
12788;SDS011;6458;42.710;23.192;2022-10-16T19:18:07;18.97;;;10.93;;
12788;SDS011;6458;42.710;23.192;2022-10-16T19:20:34;16.30;;;10.37;;
12788;SDS011;6458;42.710;23.192;2022-10-16T19:23:01;16.50;;;9.67;;
12788;SDS011;6458;42.710;23.192;2022-10-16T19:25:28;17.07;;;10.67;;
12788;SDS011;6458;42.710;23.192;2022-10-16T19:27:54;17.70;;;9.63;;
12788;SDS011;6458;42.710;23.192;2022-10-16T19:30:21;14.73;;;9.17;;
12788;SDS011;6458;42.710;23.192;2022-10-16T19:32:49;19.70;;;10.67;;
12788;SDS011;6458;42.710;23.192;2022-10-16T19:35:18;17.13;;;11.47;;
12788;SDS011;6458;42.710;23.192;2022-10-16T19:37:48;20.43;;;10.30;;
12788;SDS011;6458;42.710;23.192;2022-10-16T19:40:15;18.63;;;8.97;;
12788;SDS011;6458;42.710;23.192;2022-10-16T19:42:41;18.93;;;11.77;;
12788;SDS011;6458;42.710;23.192;2022-10-16T19:45:09;21.40;;;11.13;;
12788;SDS011;6458;42.710;23.192;2022-10-16T19:47:36;21.30;;;10.60;;
12788;SDS011;6458;42.710;23.192;2022-10-16T19:50:03;18.63;;;11.07;;
12788;SDS011;6458;42.710;23.192;2022-10-16T19:52:32;20.27;;;9.97;;
12788;SDS011;6458;42.710;23.192;2022-10-16T19:54:58;18.90;;;9.97;;
12788;SDS011;6458;42.710;23.192;2022-10-16T19:57:25;12.43;;;8.37;;
12788;SDS011;6458;42.710;23.192;2022-10-16T19:59:52;13.90;;;9.50;;
12788;SDS011;6458;42.710;23.192;2022-10-16T20:02:18;12.07;;;9.67;;
12788;SDS011;6458;42.710;23.192;2022-10-16T20:04:48;18.67;;;11.43;;
12788;SDS011;6458;42.710;23.192;2022-10-16T20:07:15;16.90;;;10.50;;
12788;SDS011;6458;42.710;23.192;2022-10-16T20:09:43;16.70;;;11.13;;
12788;SDS011;6458;42.710;23.192;2022-10-16T20:12:09;14.33;;;9.47;;
12788;SDS011;6458;42.710;23.192;2022-10-16T20:14:36;13.03;;;9.00;;
12788;SDS011;6458;42.710;23.192;2022-10-16T20:17:03;18.33;;;10.97;;
12788;SDS011;6458;42.710;23.192;2022-10-16T20:19:30;23.00;;;11.80;;
12788;SDS011;6458;42.710;23.192;2022-10-16T20:21:58;19.43;;;11.30;;
12788;SDS011;6458;42.710;23.192;2022-10-16T20:24:25;20.10;;;11.70;;
12788;SDS011;6458;42.710;23.192;2022-10-16T20:26:53;16.57;;;10.80;;
12788;SDS011;6458;42.710;23.192;2022-10-16T20:29:20;18.03;;;11.90;;
12788;SDS011;6458;42.710;23.192;2022-10-16T20:31:46;15.83;;;10.13;;
12788;SDS011;6458;42.710;23.192;2022-10-16T20:34:13;16.80;;;10.60;;
12788;SDS011;6458;42.710;23.192;2022-10-16T20:36:40;20.53;;;11.57;;
12788;SDS011;6458;42.710;23.192;2022-10-16T20:39:09;22.97;;;12.10;;
12788;SDS011;6458;42.710;23.192;2022-10-16T20:41:37;20.23;;;11.80;;
12788;SDS011;6458;42.710;23.192;2022-10-16T20:44:06;23.30;;;11.77;;
12788;SDS011;6458;42.710;23.192;2022-10-16T20:46:32;19.57;;;11.00;;
12788;SDS011;6458;42.710;23.192;2022-10-16T20:48:59;17.13;;;10.47;;
12788;SDS011;6458;42.710;23.192;2022-10-16T20:51:26;25.53;;;11.07;;
12788;SDS011;6458;42.710;23.192;2022-10-16T20:53:54;18.67;;;11.10;;
12788;SDS011;6458;42.710;23.192;2022-10-16T20:56:21;18.13;;;11.27;;
12788;SDS011;6458;42.710;23.192;2022-10-16T20:58:47;21.27;;;10.80;;
12788;SDS011;6458;42.710;23.192;2022-10-16T21:01:16;15.03;;;10.30;;
12788;SDS011;6458;42.710;23.192;2022-10-16T21:03:43;18.83;;;10.40;;
12788;SDS011;6458;42.710;23.192;2022-10-16T21:06:12;18.83;;;10.50;;
12788;SDS011;6458;42.710;23.192;2022-10-16T21:08:39;14.47;;;9.83;;
12788;SDS011;6458;42.710;23.192;2022-10-16T21:11:10;14.93;;;9.57;;
12788;SDS011;6458;42.710;23.192;2022-10-16T21:13:36;14.93;;;9.33;;
12788;SDS011;6458;42.710;23.192;2022-10-16T21:16:04;12.87;;;9.43;;
12788;SDS011;6458;42.710;23.192;2022-10-16T21:18:32;14.67;;;9.73;;
12788;SDS011;6458;42.710;23.192;2022-10-16T21:20:58;13.30;;;10.67;;
12788;SDS011;6458;42.710;23.192;2022-10-16T21:23:25;16.00;;;10.70;;
12788;SDS011;6458;42.710;23.192;2022-10-16T21:25:52;16.37;;;9.40;;
12788;SDS011;6458;42.710;23.192;2022-10-16T21:28:18;16.50;;;10.97;;
12788;SDS011;6458;42.710;23.192;2022-10-16T21:30:45;17.70;;;11.23;;
12788;SDS011;6458;42.710;23.192;2022-10-16T21:33:11;13.87;;;10.73;;
12788;SDS011;6458;42.710;23.192;2022-10-16T21:35:40;15.60;;;9.87;;
12788;SDS011;6458;42.710;23.192;2022-10-16T21:38:06;15.10;;;10.63;;
12788;SDS011;6458;42.710;23.192;2022-10-16T21:40:33;17.20;;;10.97;;
12788;SDS011;6458;42.710;23.192;2022-10-16T21:43:00;16.27;;;10.13;;
12788;SDS011;6458;42.710;23.192;2022-10-16T21:45:28;15.90;;;9.17;;
12788;SDS011;6458;42.710;23.192;2022-10-16T21:47:55;12.20;;;9.10;;
12788;SDS011;6458;42.710;23.192;2022-10-16T21:50:22;15.10;;;8.57;;
12788;SDS011;6458;42.710;23.192;2022-10-16T21:52:50;15.30;;;8.53;;
12788;SDS011;6458;42.710;23.192;2022-10-16T21:55:16;11.43;;;7.70;;
12788;SDS011;6458;42.710;23.192;2022-10-16T21:57:43;15.20;;;8.67;;
12788;SDS011;6458;42.710;23.192;2022-10-16T22:00:10;11.47;;;7.63;;
12788;SDS011;6458;42.710;23.192;2022-10-16T22:02:36;9.00;;;6.80;;
12788;SDS011;6458;42.710;23.192;2022-10-16T22:05:03;12.20;;;7.47;;
12788;SDS011;6458;42.710;23.192;2022-10-16T22:07:30;8.93;;;5.97;;
12788;SDS011;6458;42.710;23.192;2022-10-16T22:09:58;10.37;;;7.50;;
12788;SDS011;6458;42.710;23.192;2022-10-16T22:12:25;9.87;;;7.00;;
12788;SDS011;6458;42.710;23.192;2022-10-16T22:14:51;14.80;;;8.77;;
12788;SDS011;6458;42.710;23.192;2022-10-16T22:17:18;18.17;;;7.63;;
12788;SDS011;6458;42.710;23.192;2022-10-16T22:19:45;7.30;;;6.17;;
12788;SDS011;6458;42.710;23.192;2022-10-16T22:22:11;7.60;;;6.73;;
12788;SDS011;6458;42.710;23.192;2022-10-16T22:24:38;7.77;;;6.90;;
12788;SDS011;6458;42.710;23.192;2022-10-16T22:27:06;10.53;;;7.33;;
12788;SDS011;6458;42.710;23.192;2022-10-16T22:29:33;10.20;;;6.73;;
12788;SDS011;6458;42.710;23.192;2022-10-16T22:32:00;8.23;;;7.07;;
12788;SDS011;6458;42.710;23.192;2022-10-16T22:34:26;13.07;;;6.93;;
12788;SDS011;6458;42.710;23.192;2022-10-16T22:36:53;11.67;;;6.90;;
12788;SDS011;6458;42.710;23.192;2022-10-16T22:39:20;11.13;;;7.50;;
12788;SDS011;6458;42.710;23.192;2022-10-16T22:41:47;9.53;;;7.57;;
12788;SDS011;6458;42.710;23.192;2022-10-16T22:44:17;10.27;;;7.60;;
12788;SDS011;6458;42.710;23.192;2022-10-16T22:46:43;7.67;;;6.07;;
12788;SDS011;6458;42.710;23.192;2022-10-16T22:49:10;9.93;;;7.10;;
12788;SDS011;6458;42.710;23.192;2022-10-16T22:51:37;10.07;;;6.53;;
12788;SDS011;6458;42.710;23.192;2022-10-16T22:54:03;8.07;;;6.20;;
12788;SDS011;6458;42.710;23.192;2022-10-16T22:56:30;6.93;;;6.23;;
12788;SDS011;6458;42.710;23.192;2022-10-16T22:58:57;9.63;;;6.47;;
12788;SDS011;6458;42.710;23.192;2022-10-16T23:01:25;8.43;;;6.83;;
12788;SDS011;6458;42.710;23.192;2022-10-16T23:03:53;10.50;;;6.60;;
12788;SDS011;6458;42.710;23.192;2022-10-16T23:06:19;10.30;;;6.20;;
12788;SDS011;6458;42.710;23.192;2022-10-16T23:08:49;10.80;;;6.27;;
12788;SDS011;6458;42.710;23.192;2022-10-16T23:11:15;7.70;;;5.77;;
12788;SDS011;6458;42.710;23.192;2022-10-16T23:13:42;8.20;;;7.37;;
12788;SDS011;6458;42.710;23.192;2022-10-16T23:16:09;6.57;;;5.93;;
12788;SDS011;6458;42.710;23.192;2022-10-16T23:18:38;7.67;;;6.40;;
12788;SDS011;6458;42.710;23.192;2022-10-16T23:21:05;9.73;;;6.63;;
12788;SDS011;6458;42.710;23.192;2022-10-16T23:23:32;6.80;;;5.63;;
12788;SDS011;6458;42.710;23.192;2022-10-16T23:25:59;8.57;;;6.10;;
12788;SDS011;6458;42.710;23.192;2022-10-16T23:28:26;5.70;;;5.20;;
12788;SDS011;6458;42.710;23.192;2022-10-16T23:30:52;13.10;;;6.17;;
12788;SDS011;6458;42.710;23.192;2022-10-16T23:33:19;6.80;;;6.03;;
12788;SDS011;6458;42.710;23.192;2022-10-16T23:35:47;7.60;;;6.13;;
12788;SDS011;6458;42.710;23.192;2022-10-16T23:38:14;9.40;;;5.60;;
12788;SDS011;6458;42.710;23.192;2022-10-16T23:40:41;6.80;;;6.00;;
12788;SDS011;6458;42.710;23.192;2022-10-16T23:43:07;9.43;;;6.17;;
12788;SDS011;6458;42.710;23.192;2022-10-16T23:45:34;6.63;;;6.03;;
12788;SDS011;6458;42.710;23.192;2022-10-16T23:48:01;7.13;;;5.73;;
12788;SDS011;6458;42.710;23.192;2022-10-16T23:50:27;10.60;;;6.30;;
12788;SDS011;6458;42.710;23.192;2022-10-16T23:52:56;5.77;;;5.37;;
12788;SDS011;6458;42.710;23.192;2022-10-16T23:55:23;7.23;;;6.00;;
12788;SDS011;6458;42.710;23.192;2022-10-16T23:57:49;6.63;;;6.07;;
